Fort Campbell, KY

12:55 PM CDT en Octubre 20, 2014 (GMT -0500)
Campbell Army Air Field | Change Station
CLOSE
Current Station
Aeropuerto
Location: Fort Campbell,
Altura: 571 ft
Estaciones meteorológicas cercanas

Alt 571 ft 36.67 °N, 87.50 °W | Updated 57 minutes ago

Parcialmente nublado
Parcialmente nublado
62 ° F
Sensación térmica 62 ° F
N
12
Viento Variable Viento desde SSO

Hoy
Alta -- | Baja -- ° F
--% Posibilidad de precipitaciones
Ayer
Alta -- | Baja -- ° F
Precip. -- pul
7:01 AM 6:06 PM
Creciente menguante, 10% visible
Presión 30.04 pul
Visibilidad 10.0 Millas
Nubes Nubes dispersas 9000 ft
Nubes dispersas 21000 ft
Punto de rocío 52 ° F
Humedad 70%
Precipitaciones 0.00 pul
Espesor de la nieve No disponible.
UV 5 de una escala de 12
Polen 2.10 de una escala de 12
Calidad del aire No disponible.
Flu Activity Sporadic
METAR KHOP 201658Z AUTO 21010KT 10SM SCT090 SCT210 17/11 A3004 RMK AO2 RAB1557E1607DZE1617 SLP173 P0000 T01680113

More Conditions Fewer Conditions

Presión 30.04 pul
Visibilidad 10.0 Millas
Nubes Nubes dispersas 9000 ft
Nubes dispersas 21000 ft
Punto de rocío 52 ° F
Humedad 70%
Precipitaciones 0.00 pul
Espesor de la nieve No disponible.
UV 5 de una escala de 12
Polen 2.10 de una escala de 12
Calidad del aire No disponible.
Flu Activity Sporadic
METAR KHOP 201658Z AUTO 21010KT 10SM SCT090 SCT210 17/11 A3004 RMK AO2 RAB1557E1607DZE1617 SLP173 P0000 T01680113

More Conditions Fewer Conditions

10-Day Weather Forecast

Almanac

Astronomía

Oct. 20, 2014 Salida Puesta
Hora real 7:01 AM CDT 6:06 PM CDT
Crepúsculo civil 6:35 AM CDT 6:33 PM CDT
Crepúsculo náutico 6:05 AM CDT 7:03 PM CDT
Crepúsculo astronómico 5:35 AM CDT 7:33 PM CDT
Luna 3:54 AM CDT 4:25 PM CDT
Horas de luz 11h 57m
Horas de luz
11h 05m
Creciente menguante, 10% of the Moon is Illuminated
Hoy
Creciente menguante
Oct 23
Nueva
Oct 30
Cuarto creciente
Nov 6
Luna llena
Nov 14
Cuarto menguante

Extremos de hoy

Máximos del estado Bajos del estado

Community

WunderPhotos

Upload Photos

1,763,446 ¡fotos cargadas!

WunderBlogs® & News

Nearby

Calidad del aire

  Calidad del aire Índice AQ Contaminante
Ayer Buena
PM2.5
Ayer Buena
OZONE
Lunes Buena
PM2.5
Lunes Buena
OZONE
Martes Buena
OZONE
Martes Buena
PM2.5

Grosos de nieve

Estación Profundido Altura
No tenemos constancia de nieve nueva.

Actividad de terremotos

Ciudad Distance Mag. Tiempo y dato
No hay informes recientes de la actividad sísmica.
Magnitud mínima muestra es 2,5.

Temperaturas de aguas costeras

Lugar Temperatura
Sin partes meteorológicos de las estaciones

Estaciones meteorológicas cercanas